SWA962 KPHX-KSAT
Flight info
| Callsign | SWA962 |
|---|---|
| Flight time | 1h 35m |
| Altitude | 39000 |
| Route | ECLPS1 PHASE ELP FST MOPPP DNKIN2 |
| Aircraft | B737/M-SDE2E3FGHIRWXY/LB1 |
Departure
| Time | 2026-04-23 20:12 |
|---|---|
| Airport | Phoenix Sky Harbor International Airport (KPHX) |
Arrival
| Time | 2026-04-23 21:47 |
|---|---|
| Airport | San Antonio International Airport (KSAT) |
| Time | Latitude | Longitude | Altitude | Speed | Heading |
|---|---|---|---|---|---|
| 2026-04-23 19:36 | 33.43407 | -111.99373 | 1120 ft | 0 kts | 290° |
| 2026-04-23 20:04 | 33.43406 | -111.99370 | 1151 ft | 3 kts | 290° |
| 2026-04-23 20:05 | 33.43401 | -111.99351 | 1115 ft | 4 kts | 281° |
| 2026-04-23 20:05 | 33.43403 | -111.99313 | 1114 ft | 4 kts | 220° |
| 2026-04-23 20:05 | 33.43413 | -111.99306 | 1119 ft | 0 kts | 180° |
| 2026-04-23 20:09 | 33.43411 | -111.99306 | 1123 ft | 1 kts | 180° |
| 2026-04-23 20:09 | 33.43399 | -111.99306 | 1118 ft | 3 kts | 180° |
| 2026-04-23 20:09 | 33.43383 | -111.99306 | 1121 ft | 4 kts | 180° |
| 2026-04-23 20:09 | 33.43346 | -111.99306 | 1119 ft | 6 kts | 180° |
| 2026-04-23 20:10 | 33.43299 | -111.99316 | 1124 ft | 7 kts | 208° |
| 2026-04-23 20:10 | 33.43251 | -111.99344 | 1119 ft | 8 kts | 192° |
| 2026-04-23 20:10 | 33.43198 | -111.99344 | 1121 ft | 8 kts | 178° |
| 2026-04-23 20:10 | 33.43146 | -111.99343 | 1134 ft | 7 kts | 180° |
| 2026-04-23 20:11 | 33.43107 | -111.99367 | 1132 ft | 8 kts | 255° |
| 2026-04-23 20:11 | 33.43104 | -111.99513 | 1131 ft | 43 kts | 270° |
| 2026-04-23 20:11 | 33.43104 | -112.00133 | 1131 ft | 105 kts | 270° |
| 2026-04-23 20:11 | 33.43107 | -112.01239 | 1147 ft | 153 kts | 270° |
| 2026-04-23 20:12 | 33.43100 | -112.02550 | 1640 ft | 161 kts | 267° |
| 2026-04-23 20:12 | 33.43064 | -112.03916 | 2137 ft | 171 kts | 265° |
| 2026-04-23 20:12 | 33.43022 | -112.05394 | 2533 ft | 190 kts | 266° |
| 2026-04-23 20:12 | 33.42946 | -112.07077 | 2963 ft | 203 kts | 261° |
| 2026-04-23 20:13 | 33.42501 | -112.08738 | 3457 ft | 217 kts | 248° |
| 2026-04-23 20:13 | 33.41950 | -112.10401 | 4319 ft | 211 kts | 248° |
| 2026-04-23 20:13 | 33.41415 | -112.12076 | 4832 ft | 230 kts | 249° |
| 2026-04-23 20:13 | 33.40814 | -112.14011 | 5117 ft | 255 kts | 249° |
| 2026-04-23 20:14 | 33.39915 | -112.15837 | 5816 ft | 263 kts | 226° |
| 2026-04-23 20:14 | 33.38384 | -112.17134 | 6601 ft | 270 kts | 206° |
| 2026-04-23 20:14 | 33.36599 | -112.17870 | 7447 ft | 276 kts | 191° |
| 2026-04-23 20:14 | 33.34668 | -112.17672 | 8283 ft | 287 kts | 166° |
| 2026-04-23 20:15 | 33.32780 | -112.16933 | 9158 ft | 291 kts | 165° |
| 2026-04-23 20:15 | 33.30815 | -112.16173 | 9992 ft | 297 kts | 167° |
| 2026-04-23 20:15 | 33.28890 | -112.15191 | 10523 ft | 320 kts | 148° |
| 2026-04-23 20:15 | 33.27168 | -112.13316 | 10814 ft | 347 kts | 138° |
| 2026-04-23 20:16 | 33.25433 | -112.11231 | 11408 ft | 358 kts | 138° |
| 2026-04-23 20:16 | 33.23893 | -112.08856 | 12157 ft | 369 kts | 118° |
| 2026-04-23 20:16 | 33.22992 | -112.05958 | 13018 ft | 375 kts | 109° |
| 2026-04-23 20:16 | 33.22211 | -112.02952 | 13740 ft | 384 kts | 109° |
| 2026-04-23 20:17 | 33.21436 | -111.99862 | 14382 ft | 392 kts | 108° |
| 2026-04-23 20:17 | 33.20651 | -111.96736 | 15192 ft | 395 kts | 109° |
| 2026-04-23 20:17 | 33.19849 | -111.93581 | 15996 ft | 399 kts | 109° |
| 2026-04-23 20:17 | 33.19028 | -111.90394 | 16766 ft | 404 kts | 109° |
| 2026-04-23 20:18 | 33.18188 | -111.87168 | 17518 ft | 410 kts | 109° |
| 2026-04-23 20:18 | 33.17330 | -111.83898 | 18265 ft | 415 kts | 109° |
| 2026-04-23 20:18 | 33.16460 | -111.80593 | 18915 ft | 420 kts | 109° |
| 2026-04-23 20:18 | 33.15578 | -111.77250 | 19593 ft | 424 kts | 109° |
| 2026-04-23 20:19 | 33.14685 | -111.73872 | 20261 ft | 429 kts | 109° |
| 2026-04-23 20:19 | 33.13783 | -111.70460 | 20909 ft | 434 kts | 109° |
| 2026-04-23 20:19 | 33.12869 | -111.67010 | 21566 ft | 438 kts | 109° |
| 2026-04-23 20:19 | 33.11946 | -111.63528 | 22207 ft | 443 kts | 109° |
| 2026-04-23 20:20 | 33.11012 | -111.60006 | 22796 ft | 448 kts | 109° |
| 2026-04-23 20:20 | 33.10064 | -111.56437 | 23401 ft | 453 kts | 109° |
| 2026-04-23 20:20 | 33.09107 | -111.52836 | 23904 ft | 457 kts | 110° |
| 2026-04-23 20:20 | 33.08143 | -111.49214 | 24438 ft | 460 kts | 110° |
| 2026-04-23 20:21 | 33.07157 | -111.45582 | 25029 ft | 460 kts | 114° |
| 2026-04-23 20:21 | 33.05711 | -111.42218 | 25579 ft | 454 kts | 128° |
| 2026-04-23 20:21 | 33.03974 | -111.39068 | 26113 ft | 456 kts | 129° |
| 2026-04-23 20:21 | 33.02190 | -111.35926 | 26576 ft | 459 kts | 130° |
| 2026-04-23 20:22 | 33.00391 | -111.32763 | 27075 ft | 463 kts | 130° |
| 2026-04-23 20:22 | 32.98592 | -111.29569 | 27562 ft | 466 kts | 130° |
| 2026-04-23 20:22 | 32.96795 | -111.26344 | 28063 ft | 469 kts | 130° |
| 2026-04-23 20:22 | 32.94998 | -111.23097 | 28545 ft | 471 kts | 130° |
| 2026-04-23 20:23 | 32.93219 | -111.19867 | 29010 ft | 474 kts | 130° |
| 2026-04-23 20:23 | 32.91409 | -111.16575 | 29468 ft | 477 kts | 130° |
| 2026-04-23 20:23 | 32.89589 | -111.13267 | 29913 ft | 479 kts | 131° |
| 2026-04-23 20:23 | 32.87751 | -111.09932 | 30202 ft | 484 kts | 131° |
| 2026-04-23 20:24 | 32.85895 | -111.06569 | 30472 ft | 489 kts | 130° |
| 2026-04-23 20:24 | 32.84018 | -111.03171 | 30751 ft | 493 kts | 131° |
| 2026-04-23 20:24 | 32.82126 | -110.99750 | 31012 ft | 498 kts | 131° |
| 2026-04-23 20:24 | 32.80214 | -110.96295 | 31289 ft | 502 kts | 131° |
| 2026-04-23 20:25 | 32.78292 | -110.92820 | 31600 ft | 504 kts | 130° |
| 2026-04-23 20:25 | 32.76362 | -110.89334 | 31925 ft | 506 kts | 131° |
| 2026-04-23 20:25 | 32.74422 | -110.85838 | 32252 ft | 507 kts | 131° |
| 2026-04-23 20:25 | 32.72477 | -110.82335 | 32594 ft | 509 kts | 131° |
| 2026-04-23 20:26 | 32.70523 | -110.78821 | 32894 ft | 511 kts | 131° |
| 2026-04-23 20:26 | 32.68552 | -110.75280 | 33069 ft | 516 kts | 131° |
| 2026-04-23 20:26 | 32.66567 | -110.71716 | 33285 ft | 519 kts | 131° |
| 2026-04-23 20:26 | 32.64637 | -110.68080 | 33569 ft | 527 kts | 124° |
| 2026-04-23 20:27 | 32.63325 | -110.63957 | 33849 ft | 541 kts | 110° |
| 2026-04-23 20:27 | 32.62383 | -110.59630 | 34173 ft | 542 kts | 108° |
| 2026-04-23 20:27 | 32.61500 | -110.55285 | 34427 ft | 543 kts | 108° |
| 2026-04-23 20:27 | 32.60618 | -110.50925 | 34691 ft | 544 kts | 108° |
| 2026-04-23 20:28 | 32.59712 | -110.46563 | 34963 ft | 545 kts | 109° |
| 2026-04-23 20:28 | 32.58779 | -110.42208 | 35241 ft | 545 kts | 109° |
| 2026-04-23 20:28 | 32.57828 | -110.37865 | 35517 ft | 545 kts | 110° |
| 2026-04-23 20:28 | 32.56861 | -110.33522 | 35816 ft | 544 kts | 111° |
| 2026-04-23 20:29 | 32.55890 | -110.29196 | 36062 ft | 544 kts | 110° |
| 2026-04-23 20:29 | 32.54916 | -110.24846 | 36256 ft | 546 kts | 110° |
| 2026-04-23 20:29 | 32.53935 | -110.20493 | 36447 ft | 547 kts | 111° |
| 2026-04-23 20:29 | 32.52954 | -110.16138 | 36666 ft | 548 kts | 111° |
| 2026-04-23 20:30 | 32.51974 | -110.11777 | 36925 ft | 548 kts | 110° |
| 2026-04-23 20:30 | 32.50019 | -110.03088 | 37296 ft | 551 kts | 111° |
| 2026-04-23 20:30 | 32.49031 | -109.98705 | 37529 ft | 551 kts | 111° |
| 2026-04-23 20:31 | 32.48029 | -109.94270 | 37791 ft | 550 kts | 111° |
| 2026-04-23 20:31 | 32.47039 | -109.89892 | 38029 ft | 550 kts | 111° |
| 2026-04-23 20:31 | 32.46060 | -109.85576 | 38267 ft | 550 kts | 111° |
| 2026-04-23 20:31 | 32.45067 | -109.81204 | 38481 ft | 550 kts | 111° |
| 2026-04-23 20:32 | 32.44072 | -109.76825 | 38656 ft | 551 kts | 111° |
| 2026-04-23 20:32 | 32.43167 | -109.72339 | 38813 ft | 555 kts | 106° |
| 2026-04-23 20:32 | 32.42009 | -109.63341 | 38855 ft | 558 kts | 101° |
| 2026-04-23 20:33 | 32.41032 | -109.54254 | 38870 ft | 556 kts | 102° |
| 2026-04-23 20:33 | 32.39935 | -109.45207 | 38836 ft | 555 kts | 102° |
| 2026-04-23 20:34 | 32.38763 | -109.36197 | 38864 ft | 554 kts | 103° |
| 2026-04-23 20:34 | 32.37584 | -109.27197 | 38873 ft | 554 kts | 102° |
| 2026-04-23 20:35 | 32.36410 | -109.18173 | 38858 ft | 555 kts | 102° |
| 2026-04-23 20:35 | 32.35069 | -109.09189 | 38850 ft | 554 kts | 106° |
| 2026-04-23 20:36 | 32.33433 | -109.00284 | 38848 ft | 554 kts | 107° |
| 2026-04-23 20:36 | 32.31765 | -108.91388 | 38860 ft | 554 kts | 107° |
| 2026-04-23 20:37 | 32.30136 | -108.82476 | 38857 ft | 555 kts | 107° |
| 2026-04-23 20:37 | 32.28531 | -108.73560 | 39025 ft | 555 kts | 107° |
| 2026-04-23 20:38 | 32.26922 | -108.64641 | 38991 ft | 554 kts | 107° |
| 2026-04-23 20:38 | 32.25308 | -108.55750 | 38993 ft | 553 kts | 107° |
| 2026-04-23 20:39 | 32.23686 | -108.46869 | 38953 ft | 553 kts | 107° |
| 2026-04-23 20:39 | 32.22057 | -108.37995 | 38894 ft | 553 kts | 107° |
| 2026-04-23 20:40 | 32.20422 | -108.29118 | 38844 ft | 553 kts | 107° |
| 2026-04-23 20:40 | 32.18783 | -108.20251 | 38846 ft | 553 kts | 107° |
| 2026-04-23 20:41 | 32.17137 | -108.11390 | 38847 ft | 553 kts | 107° |
| 2026-04-23 20:41 | 32.15496 | -108.02588 | 38839 ft | 553 kts | 107° |
| 2026-04-23 20:42 | 32.13840 | -107.93741 | 38836 ft | 553 kts | 107° |
| 2026-04-23 20:42 | 32.12175 | -107.84887 | 38824 ft | 553 kts | 107° |
| 2026-04-23 20:43 | 32.11341 | -107.80464 | 38952 ft | 553 kts | 107° |
| 2026-04-23 20:43 | 32.10505 | -107.76037 | 38953 ft | 553 kts | 107° |
| 2026-04-23 20:43 | 32.08829 | -107.67189 | 38947 ft | 553 kts | 107° |
| 2026-04-23 20:44 | 32.07144 | -107.58346 | 38895 ft | 553 kts | 107° |
| 2026-04-23 20:44 | 32.05455 | -107.49503 | 38864 ft | 553 kts | 107° |
| 2026-04-23 20:45 | 32.03761 | -107.40666 | 38802 ft | 553 kts | 107° |
| 2026-04-23 20:45 | 32.02060 | -107.31834 | 38789 ft | 553 kts | 107° |
| 2026-04-23 20:46 | 32.00351 | -107.22996 | 38788 ft | 553 kts | 107° |
| 2026-04-23 20:46 | 31.98636 | -107.14162 | 38786 ft | 554 kts | 107° |
| 2026-04-23 20:47 | 31.96916 | -107.05330 | 38786 ft | 552 kts | 107° |
| 2026-04-23 20:47 | 31.95193 | -106.96520 | 38781 ft | 552 kts | 107° |
| 2026-04-23 20:48 | 31.93465 | -106.87725 | 38778 ft | 552 kts | 107° |
| 2026-04-23 20:48 | 31.92598 | -106.83324 | 38957 ft | 551 kts | 107° |
| 2026-04-23 20:48 | 31.91730 | -106.78928 | 38980 ft | 551 kts | 107° |
| 2026-04-23 20:49 | 31.89991 | -106.70142 | 38982 ft | 551 kts | 107° |
| 2026-04-23 20:49 | 31.88258 | -106.61420 | 38991 ft | 551 kts | 107° |
| 2026-04-23 20:50 | 31.86507 | -106.52640 | 38934 ft | 552 kts | 107° |
| 2026-04-23 20:50 | 31.84745 | -106.43836 | 38944 ft | 553 kts | 107° |
| 2026-04-23 20:51 | 31.82976 | -106.35031 | 38945 ft | 554 kts | 107° |
| 2026-04-23 20:51 | 31.81190 | -106.26224 | 38935 ft | 552 kts | 108° |
| 2026-04-23 20:52 | 31.79116 | -106.17546 | 38883 ft | 551 kts | 111° |
| 2026-04-23 20:52 | 31.76892 | -106.08929 | 38828 ft | 551 kts | 111° |
| 2026-04-23 20:53 | 31.74692 | -106.00306 | 38782 ft | 551 kts | 110° |
| 2026-04-23 20:53 | 31.72532 | -105.91665 | 38755 ft | 551 kts | 110° |
| 2026-04-23 20:54 | 31.70377 | -105.83022 | 38754 ft | 551 kts | 110° |
| 2026-04-23 20:54 | 31.68217 | -105.74386 | 38753 ft | 551 kts | 110° |
| 2026-04-23 20:55 | 31.66049 | -105.65762 | 38755 ft | 550 kts | 110° |
| 2026-04-23 20:55 | 31.63877 | -105.57151 | 38744 ft | 550 kts | 109° |
| 2026-04-23 20:56 | 31.61715 | -105.48608 | 38749 ft | 549 kts | 109° |
| 2026-04-23 20:56 | 31.59520 | -105.39965 | 38760 ft | 549 kts | 109° |
| 2026-04-23 20:57 | 31.57350 | -105.31441 | 38758 ft | 549 kts | 110° |
| 2026-04-23 20:57 | 31.55515 | -105.24251 | 38764 ft | 550 kts | 109° |
| 2026-04-23 20:58 | 31.53316 | -105.15664 | 38762 ft | 550 kts | 109° |
| 2026-04-23 20:58 | 31.51107 | -105.07067 | 38762 ft | 551 kts | 109° |
| 2026-04-23 20:59 | 31.48890 | -104.98468 | 38777 ft | 552 kts | 109° |
| 2026-04-23 20:59 | 31.46659 | -104.89843 | 38699 ft | 554 kts | 109° |
| 2026-04-23 21:00 | 31.44432 | -104.81263 | 38754 ft | 548 kts | 109° |
| 2026-04-23 21:00 | 31.42220 | -104.72741 | 38764 ft | 546 kts | 109° |
| 2026-04-23 21:01 | 31.40024 | -104.64310 | 38760 ft | 545 kts | 109° |
| 2026-04-23 21:01 | 31.37808 | -104.55839 | 38754 ft | 544 kts | 109° |
| 2026-04-23 21:02 | 31.35589 | -104.47381 | 38759 ft | 544 kts | 109° |
| 2026-04-23 21:02 | 31.33363 | -104.38926 | 38769 ft | 544 kts | 109° |
| 2026-04-23 21:03 | 31.31129 | -104.30459 | 38754 ft | 545 kts | 109° |
| 2026-04-23 21:03 | 31.28884 | -104.21979 | 38757 ft | 547 kts | 109° |
| 2026-04-23 21:04 | 31.26631 | -104.13491 | 38758 ft | 546 kts | 109° |
| 2026-04-23 21:04 | 31.24372 | -104.05006 | 38736 ft | 547 kts | 109° |
| 2026-04-23 21:05 | 31.22106 | -103.96522 | 38744 ft | 547 kts | 109° |
| 2026-04-23 21:05 | 31.19838 | -103.88055 | 38742 ft | 546 kts | 109° |
| 2026-04-23 21:06 | 31.17563 | -103.79586 | 38759 ft | 547 kts | 109° |
| 2026-04-23 21:06 | 31.15285 | -103.71128 | 38755 ft | 546 kts | 109° |
| 2026-04-23 21:07 | 31.13000 | -103.62673 | 38753 ft | 546 kts | 109° |
| 2026-04-23 21:07 | 31.10715 | -103.54240 | 38757 ft | 545 kts | 109° |
| 2026-04-23 21:08 | 31.08424 | -103.45808 | 38705 ft | 545 kts | 109° |
| 2026-04-23 21:08 | 31.06129 | -103.37386 | 38715 ft | 544 kts | 109° |
| 2026-04-23 21:09 | 31.03832 | -103.28983 | 38709 ft | 544 kts | 109° |
| 2026-04-23 21:09 | 31.01529 | -103.20581 | 38705 ft | 544 kts | 109° |
| 2026-04-23 21:10 | 30.99223 | -103.12187 | 38732 ft | 544 kts | 109° |
| 2026-04-23 21:10 | 30.96906 | -103.03778 | 38707 ft | 545 kts | 109° |
| 2026-04-23 21:11 | 30.94595 | -102.95359 | 38705 ft | 546 kts | 108° |
| 2026-04-23 21:11 | 30.93504 | -102.91122 | 38837 ft | 547 kts | 107° |
| 2026-04-23 21:11 | 30.92451 | -102.86867 | 38837 ft | 547 kts | 107° |
| 2026-04-23 21:12 | 30.90374 | -102.78340 | 38826 ft | 548 kts | 107° |
| 2026-04-23 21:12 | 30.88286 | -102.69866 | 38780 ft | 548 kts | 107° |
| 2026-04-23 21:13 | 30.86158 | -102.61362 | 38751 ft | 547 kts | 107° |
| 2026-04-23 21:13 | 30.84016 | -102.52862 | 38729 ft | 547 kts | 107° |
| 2026-04-23 21:14 | 30.81872 | -102.44379 | 38721 ft | 547 kts | 107° |
| 2026-04-23 21:14 | 30.79726 | -102.35898 | 38730 ft | 546 kts | 107° |
| 2026-04-23 21:15 | 30.77579 | -102.27441 | 38735 ft | 545 kts | 107° |
| 2026-04-23 21:15 | 30.75426 | -102.18992 | 38735 ft | 544 kts | 107° |
| 2026-04-23 21:16 | 30.73274 | -102.10565 | 38739 ft | 543 kts | 107° |
| 2026-04-23 21:16 | 30.71120 | -102.02158 | 38770 ft | 543 kts | 107° |
| 2026-04-23 21:17 | 30.68959 | -101.93746 | 38737 ft | 543 kts | 106° |
| 2026-04-23 21:17 | 30.66794 | -101.85347 | 38753 ft | 542 kts | 107° |
| 2026-04-23 21:18 | 30.64629 | -101.76968 | 38752 ft | 541 kts | 107° |
| 2026-04-23 21:18 | 30.62459 | -101.68598 | 38771 ft | 541 kts | 107° |
| 2026-04-23 21:19 | 30.60283 | -101.60231 | 38780 ft | 542 kts | 106° |
| 2026-04-23 21:19 | 30.58101 | -101.51861 | 38774 ft | 542 kts | 106° |
| 2026-04-23 21:20 | 30.55913 | -101.43488 | 38796 ft | 543 kts | 106° |
| 2026-04-23 21:20 | 30.53714 | -101.35102 | 38785 ft | 544 kts | 107° |
| 2026-04-23 21:21 | 30.51505 | -101.26705 | 38792 ft | 545 kts | 106° |
| 2026-04-23 21:21 | 30.49287 | -101.18294 | 38836 ft | 546 kts | 106° |
| 2026-04-23 21:22 | 30.47060 | -101.09874 | 38802 ft | 546 kts | 106° |
| 2026-04-23 21:22 | 30.44827 | -101.01459 | 38796 ft | 546 kts | 106° |
| 2026-04-23 21:23 | 30.42594 | -100.93061 | 38813 ft | 545 kts | 106° |
| 2026-04-23 21:23 | 30.40358 | -100.84685 | 38842 ft | 544 kts | 106° |
| 2026-04-23 21:24 | 30.38120 | -100.76322 | 38848 ft | 543 kts | 106° |
| 2026-04-23 21:24 | 30.37012 | -100.72188 | 38603 ft | 548 kts | 106° |
| 2026-04-23 21:24 | 30.35864 | -100.67912 | 37963 ft | 550 kts | 106° |
| 2026-04-23 21:25 | 30.34731 | -100.63696 | 37350 ft | 548 kts | 107° |
| 2026-04-23 21:25 | 30.33599 | -100.59493 | 36733 ft | 546 kts | 107° |
| 2026-04-23 21:25 | 30.32484 | -100.55357 | 36128 ft | 545 kts | 106° |
| 2026-04-23 21:25 | 30.31342 | -100.51128 | 35469 ft | 544 kts | 107° |
| 2026-04-23 21:26 | 30.30225 | -100.46999 | 34770 ft | 545 kts | 107° |
| 2026-04-23 21:26 | 30.29091 | -100.42812 | 34015 ft | 546 kts | 107° |
| 2026-04-23 21:26 | 30.27953 | -100.38615 | 33172 ft | 547 kts | 107° |
| 2026-04-23 21:26 | 30.26812 | -100.34412 | 32345 ft | 547 kts | 107° |
| 2026-04-23 21:27 | 30.25672 | -100.30220 | 31522 ft | 547 kts | 108° |
| 2026-04-23 21:27 | 30.24529 | -100.26022 | 30671 ft | 547 kts | 108° |
| 2026-04-23 21:27 | 30.23391 | -100.21847 | 30096 ft | 541 kts | 108° |
| 2026-04-23 21:27 | 30.22263 | -100.17717 | 29392 ft | 536 kts | 108° |
| 2026-04-23 21:28 | 30.21146 | -100.13629 | 28718 ft | 529 kts | 108° |
| 2026-04-23 21:28 | 30.20045 | -100.09606 | 28069 ft | 522 kts | 108° |
| 2026-04-23 21:28 | 30.18956 | -100.05635 | 27440 ft | 514 kts | 108° |
| 2026-04-23 21:28 | 30.17883 | -100.01722 | 26813 ft | 508 kts | 109° |
| 2026-04-23 21:29 | 30.16790 | -99.97866 | 26189 ft | 501 kts | 110° |
| 2026-04-23 21:29 | 30.15625 | -99.94104 | 25568 ft | 494 kts | 112° |
| 2026-04-23 21:29 | 30.14429 | -99.90407 | 24954 ft | 488 kts | 112° |
| 2026-04-23 21:29 | 30.13234 | -99.86756 | 24323 ft | 483 kts | 112° |
| 2026-04-23 21:30 | 30.12056 | -99.83142 | 23708 ft | 478 kts | 112° |
| 2026-04-23 21:30 | 30.10899 | -99.79563 | 23017 ft | 473 kts | 112° |
| 2026-04-23 21:30 | 30.09762 | -99.76023 | 22344 ft | 467 kts | 112° |
| 2026-04-23 21:30 | 30.08644 | -99.72524 | 21711 ft | 460 kts | 112° |
| 2026-04-23 21:31 | 30.07547 | -99.69084 | 21097 ft | 454 kts | 112° |
| 2026-04-23 21:31 | 30.06465 | -99.65692 | 20506 ft | 447 kts | 112° |
| 2026-04-23 21:31 | 30.05398 | -99.62349 | 19917 ft | 441 kts | 112° |
| 2026-04-23 21:31 | 30.04343 | -99.59051 | 19329 ft | 435 kts | 111° |
| 2026-04-23 21:32 | 30.03301 | -99.55799 | 18757 ft | 429 kts | 111° |
| 2026-04-23 21:32 | 30.02273 | -99.52595 | 18186 ft | 422 kts | 111° |
| 2026-04-23 21:32 | 30.01269 | -99.49465 | 17584 ft | 409 kts | 112° |
| 2026-04-23 21:32 | 30.00299 | -99.46440 | 17046 ft | 396 kts | 112° |
| 2026-04-23 21:33 | 29.99347 | -99.43482 | 16495 ft | 392 kts | 112° |
| 2026-04-23 21:33 | 29.98415 | -99.40587 | 15955 ft | 389 kts | 112° |
| 2026-04-23 21:33 | 29.97476 | -99.37674 | 15409 ft | 386 kts | 112° |
| 2026-04-23 21:33 | 29.96542 | -99.34778 | 14899 ft | 384 kts | 112° |
| 2026-04-23 21:34 | 29.95613 | -99.31901 | 14348 ft | 383 kts | 112° |
| 2026-04-23 21:34 | 29.94687 | -99.29031 | 13789 ft | 382 kts | 113° |
| 2026-04-23 21:34 | 29.93761 | -99.26167 | 13184 ft | 380 kts | 112° |
| 2026-04-23 21:34 | 29.92846 | -99.23337 | 12621 ft | 373 kts | 112° |
| 2026-04-23 21:35 | 29.91943 | -99.20566 | 12049 ft | 366 kts | 114° |
| 2026-04-23 21:35 | 29.90981 | -99.17879 | 11460 ft | 360 kts | 115° |
| 2026-04-23 21:35 | 29.90001 | -99.15263 | 10927 ft | 352 kts | 116° |
| 2026-04-23 21:35 | 29.89041 | -99.12701 | 10508 ft | 342 kts | 115° |
| 2026-04-23 21:36 | 29.87273 | -99.07909 | 10207 ft | 309 kts | 115° |
| 2026-04-23 21:36 | 29.86448 | -99.05665 | 10075 ft | 300 kts | 116° |
| 2026-04-23 21:36 | 29.85649 | -99.03490 | 9885 ft | 291 kts | 116° |
| 2026-04-23 21:37 | 29.84860 | -99.01350 | 9531 ft | 290 kts | 115° |
| 2026-04-23 21:37 | 29.84076 | -98.99223 | 9179 ft | 287 kts | 116° |
| 2026-04-23 21:37 | 29.83297 | -98.97112 | 8822 ft | 285 kts | 117° |
| 2026-04-23 21:37 | 29.82494 | -98.95026 | 8497 ft | 285 kts | 117° |
| 2026-04-23 21:38 | 29.81618 | -98.92989 | 8104 ft | 284 kts | 119° |
| 2026-04-23 21:38 | 29.80745 | -98.90963 | 7766 ft | 282 kts | 120° |
| 2026-04-23 21:38 | 29.79887 | -98.88943 | 7425 ft | 279 kts | 118° |
| 2026-04-23 21:38 | 29.79060 | -98.86977 | 7287 ft | 268 kts | 120° |
| 2026-04-23 21:39 | 29.78266 | -98.85081 | 7162 ft | 259 kts | 120° |
| 2026-04-23 21:39 | 29.77498 | -98.83245 | 7036 ft | 250 kts | 119° |
| 2026-04-23 21:39 | 29.76758 | -98.81475 | 6899 ft | 243 kts | 120° |
| 2026-04-23 21:39 | 29.76024 | -98.79730 | 6718 ft | 241 kts | 121° |
| 2026-04-23 21:40 | 29.75299 | -98.77995 | 6536 ft | 240 kts | 119° |
| 2026-04-23 21:40 | 29.74574 | -98.76269 | 6352 ft | 238 kts | 120° |
| 2026-04-23 21:40 | 29.73854 | -98.74559 | 6144 ft | 236 kts | 119° |
| 2026-04-23 21:40 | 29.73118 | -98.72884 | 5911 ft | 233 kts | 128° |
| 2026-04-23 21:41 | 29.72089 | -98.71476 | 5647 ft | 229 kts | 137° |
| 2026-04-23 21:41 | 29.71009 | -98.70122 | 5383 ft | 230 kts | 136° |
| 2026-04-23 21:41 | 29.69941 | -98.68761 | 5107 ft | 229 kts | 136° |
| 2026-04-23 21:41 | 29.68875 | -98.67395 | 4850 ft | 229 kts | 135° |
| 2026-04-23 21:42 | 29.67811 | -98.66033 | 4609 ft | 229 kts | 135° |
| 2026-04-23 21:42 | 29.66751 | -98.64679 | 4352 ft | 228 kts | 135° |
| 2026-04-23 21:42 | 29.65703 | -98.63331 | 4060 ft | 223 kts | 136° |
| 2026-04-23 21:42 | 29.64692 | -98.62021 | 3800 ft | 216 kts | 135° |
| 2026-04-23 21:43 | 29.63712 | -98.60754 | 3519 ft | 206 kts | 135° |
| 2026-04-23 21:43 | 29.62794 | -98.59567 | 3255 ft | 190 kts | 136° |
| 2026-04-23 21:43 | 29.61953 | -98.58480 | 3017 ft | 176 kts | 136° |
| 2026-04-23 21:43 | 29.61429 | -98.57804 | 2887 ft | 166 kts | 135° |
| 2026-04-23 21:44 | 29.60468 | -98.56562 | 2627 ft | 148 kts | 136° |
| 2026-04-23 21:44 | 29.59819 | -98.55722 | 2473 ft | 134 kts | 136° |
| 2026-04-23 21:44 | 29.59214 | -98.54941 | 2305 ft | 130 kts | 137° |
| 2026-04-23 21:44 | 29.58595 | -98.54143 | 2136 ft | 136 kts | 139° |
| 2026-04-23 21:45 | 29.58164 | -98.53591 | 2026 ft | 139 kts | 138° |
| 2026-04-23 21:45 | 29.57518 | -98.52753 | 1848 ft | 140 kts | 138° |
| 2026-04-23 21:45 | 29.56894 | -98.51937 | 1665 ft | 131 kts | 136° |
| 2026-04-23 21:45 | 29.56287 | -98.51155 | 1462 ft | 131 kts | 135° |
| 2026-04-23 21:46 | 29.55681 | -98.50378 | 1250 ft | 132 kts | 133° |
| 2026-04-23 21:46 | 29.55064 | -98.49584 | 1064 ft | 134 kts | 135° |
| 2026-04-23 21:46 | 29.54452 | -98.48779 | 893 ft | 134 kts | 134° |
| 2026-04-23 21:46 | 29.53849 | -98.48006 | 798 ft | 118 kts | 129° |
| 2026-04-23 21:47 | 29.53449 | -98.47490 | 797 ft | 55 kts | 131° |
| 2026-04-23 21:47 | 29.53288 | -98.47312 | 797 ft | 22 kts | 158° |
| 2026-04-23 21:47 | 29.53178 | -98.47274 | 797 ft | 14 kts | 162° |
| 2026-04-23 21:47 | 29.53096 | -98.47225 | 815 ft | 13 kts | 135° |
| 2026-04-23 21:48 | 29.53036 | -98.47149 | 779 ft | 13 kts | 131° |
| 2026-04-23 21:48 | 29.52978 | -98.47073 | 793 ft | 12 kts | 131° |
| 2026-04-23 21:48 | 29.52921 | -98.47000 | 793 ft | 12 kts | 130° |
| 2026-04-23 21:48 | 29.52865 | -98.46929 | 793 ft | 12 kts | 132° |
| 2026-04-23 21:49 | 29.52798 | -98.46916 | 793 ft | 10 kts | 197° |
| 2026-04-23 21:49 | 29.52744 | -98.46876 | 793 ft | 10 kts | 141° |
| 2026-04-23 21:49 | 29.52709 | -98.46908 | 793 ft | 8 kts | 281° |
| 2026-04-23 21:49 | 29.52726 | -98.46954 | 793 ft | 4 kts | 294° |
| 2026-04-23 21:50 | 29.52729 | -98.46962 | 793 ft | 1 kts | 294° |
| 2026-04-23 21:50 | 29.52730 | -98.46963 | 793 ft | 1 kts | 294° |
| 2026-04-23 21:50 | 29.52730 | -98.46964 | 793 ft | 0 kts | 294° |